Time;durP1;ratioP1;P1;durP2;ratioP2;P2;SDS_P1;SDS_P2;PMS_P1;PMS_P2;Temp;Humidity;BMP_temperature;BMP_pressure;BME280_temperature;BME280_humidity;BME280_pressure;Samples;Min_cycle;Max_cycle;Signal;HPM_P1;HPM_P2
2023/05/16 00:01:23;;;;;;;14.70;2.30;;;;;;;12.92;54.20;102158.28;4992042;28;20034;-49
2023/05/16 00:03:49;;;;;;;13.75;2.20;;;;;;;12.90;54.33;102162.56;4992070;28;20544;-45
2023/05/16 00:06:14;;;;;;;12.70;2.28;;;;;;;12.76;54.24;102158.72;4991079;28;20035;-47
2023/05/16 00:08:40;;;;;;;10.23;2.50;;;;;;;12.90;53.90;102154.72;4991261;28;20125;-47
2023/05/16 00:11:05;;;;;;;13.45;2.10;;;;;;;12.65;54.56;102162.81;4990908;28;20184;-45
2023/05/16 00:13:30;;;;;;;9.23;1.98;;;;;;;12.96;53.83;102154.88;4991104;28;20030;-49
2023/05/16 00:15:55;;;;;;;10.48;1.80;;;;;;;12.99;53.73;102157.53;4991208;28;20508;-44
2023/05/16 00:18:21;;;;;;;10.60;2.00;;;;;;;13.18;53.52;102158.00;4991663;28;20035;-44
2023/05/16 00:20:48;;;;;;;12.50;2.03;;;;;;;13.06;54.43;102158.56;4992025;28;20105;-46
2023/05/16 00:23:14;;;;;;;9.48;2.00;;;;;;;13.02;54.85;102168.09;4992323;28;20494;-46
2023/05/16 00:25:39;;;;;;;11.00;1.90;;;;;;;13.12;54.70;102165.69;4992687;28;20125;-47
2023/05/16 00:28:05;;;;;;;7.95;1.92;;;;;;;13.08;54.83;102163.84;4992653;28;20030;-44
2023/05/16 00:30:30;;;;;;;10.27;2.00;;;;;;;13.04;55.46;102167.25;4993011;28;20412;-45
2023/05/16 00:32:56;;;;;;;10.27;1.92;;;;;;;12.78;56.57;102169.22;4992710;28;20034;-46
2023/05/16 00:35:21;;;;;;;11.77;2.50;;;;;;;12.93;55.88;102164.34;4993487;28;20043;-50
2023/05/16 00:37:47;;;;;;;8.25;1.88;;;;;;;13.02;55.68;102162.88;4992331;28;20034;-45
2023/05/16 00:40:12;;;;;;;12.15;2.30;;;;;;;12.74;56.67;102170.00;4990248;28;20054;-47
2023/05/16 00:42:38;;;;;;;8.55;1.85;;;;;;;12.85;56.50;102164.19;4991255;28;20158;-45
2023/05/16 00:45:05;;;;;;;11.30;2.10;;;;;;;12.70;56.98;102165.53;4989914;28;20492;-47
2023/05/16 00:47:30;;;;;;;12.13;2.30;;;;;;;12.73;57.08;102166.50;4990183;28;20048;-48
2023/05/16 00:49:56;;;;;;;12.10;2.05;;;;;;;12.68;57.36;102164.63;4990272;28;20121;-49
2023/05/16 00:52:21;;;;;;;10.93;1.92;;;;;;;12.68;57.60;102162.91;4990935;28;20493;-47
2023/05/16 00:54:47;;;;;;;12.45;2.30;;;;;;;12.75;57.09;102164.78;4989385;28;20046;-48
2023/05/16 00:57:12;;;;;;;8.80;1.83;;;;;;;12.82;56.77;102165.84;4990112;28;20026;-48
2023/05/16 00:59:38;;;;;;;10.82;2.17;;;;;;;12.71;57.15;102170.81;4990139;28;20050;-47
2023/05/16 01:02:04;;;;;;;9.48;1.85;;;;;;;12.77;56.92;102168.34;4989808;28;20026;-44
2023/05/16 01:04:29;;;;;;;10.02;1.98;;;;;;;12.71;57.13;102159.44;4989679;28;20042;-47
2023/05/16 01:06:55;;;;;;;7.57;1.80;;;;;;;12.74;56.90;102167.41;4990084;28;20034;-52
2023/05/16 01:09:21;;;;;;;6.88;1.80;;;;;;;12.69;56.62;102163.75;4990077;28;20037;-49
2023/05/16 01:12:06;;;;;;;9.32;2.05;;;;;;;12.53;57.38;102162.50;4989618;28;20062;-45
2023/05/16 01:14:43;;;;;;;10.30;2.20;;;;;;;12.40;58.02;102168.25;4990098;28;20046;-46
2023/05/16 01:17:26;;;;;;;11.00;2.20;;;;;;;12.41;57.75;102170.00;4990682;28;20033;-46
2023/05/16 01:20:03;;;;;;;8.02;2.03;;;;;;;12.56;57.02;102173.06;4990999;28;20069;-45
2023/05/16 01:22:47;;;;;;;10.55;2.22;;;;;;;12.46;57.41;102165.78;4990540;28;20401;-44
2023/05/16 01:25:20;;;;;;;7.53;1.70;;;;;;;12.45;57.42;102164.00;4990611;28;20031;-45
2023/05/16 01:27:46;;;;;;;8.75;1.50;;;;;;;12.44;57.15;102163.13;4990886;28;20042;-50
2023/05/16 01:30:14;;;;;;;11.13;2.10;;;;;;;12.34;57.84;102161.13;4990401;28;20038;-49
2023/05/16 01:32:40;;;;;;;6.32;1.75;;;;;;;12.32;58.01;102167.19;4989806;28;20034;-44
2023/05/16 01:35:07;;;;;;;7.47;2.05;;;;;;;12.33;57.49;102168.91;4989728;28;20038;-47
2023/05/16 01:37:37;;;;;;;9.05;1.80;;;;;;;12.32;57.44;102173.25;4989809;28;20093;-46
2023/05/16 01:40:08;;;;;;;12.43;2.17;;;;;;;12.26;57.83;102172.25;4989562;28;20034;-47
2023/05/16 01:42:38;;;;;;;9.95;1.75;;;;;;;12.33;57.94;102163.69;4989617;28;20485;-45
2023/05/16 01:45:06;;;;;;;7.82;1.80;;;;;;;12.60;56.94;102164.44;4989725;28;20137;-47
2023/05/16 01:47:35;;;;;;;8.52;1.80;;;;;;;12.64;56.74;102168.88;4989736;28;20497;-45
2023/05/16 01:50:06;;;;;;;12.98;1.92;;;;;;;12.39;57.81;102176.94;4989771;28;20031;-44
2023/05/16 01:52:39;;;;;;;9.73;1.75;;;;;;;12.68;56.99;102169.84;4989477;28;20038;-48
2023/05/16 01:55:10;;;;;;;7.50;2.20;;;;;;;12.75;57.15;102174.38;4989497;28;20038;-44
2023/05/16 01:57:37;;;;;;;10.10;1.80;;;;;;;12.64;57.76;102173.22;4995982;28;20034;-47
2023/05/16 02:00:03;;;;;;;9.82;1.70;;;;;;;12.64;57.94;102179.34;4995791;28;20467;-46
2023/05/16 02:02:30;;;;;;;9.77;2.40;;;;;;;12.69;57.69;102175.09;4995462;28;20121;-47
2023/05/16 02:04:55;;;;;;;10.93;1.98;;;;;;;12.69;57.35;102176.84;4995431;28;20034;-44
2023/05/16 02:07:21;;;;;;;12.23;1.80;;;;;;;12.42;58.65;102182.25;4995717;28;20041;-48
2023/05/16 02:09:46;;;;;;;9.57;1.85;;;;;;;12.49;58.76;102182.47;4995554;28;20045;-48
2023/05/16 02:12:12;;;;;;;10.70;2.10;;;;;;;12.60;58.14;102186.25;4995507;28;20520;-49
2023/05/16 02:14:37;;;;;;;10.63;1.90;;;;;;;12.63;57.81;102177.56;4995206;28;20034;-47
2023/05/16 02:17:02;;;;;;;6.72;1.40;;;;;;;12.63;57.58;102177.56;4996196;28;20519;-46
2023/05/16 02:19:28;;;;;;;8.80;1.60;;;;;;;12.49;57.92;102181.56;4997233;28;20128;-44
2023/05/16 02:21:53;;;;;;;9.43;1.67;;;;;;;12.37;58.43;102178.63;4997491;28;20034;-44
2023/05/16 02:24:18;;;;;;;6.63;1.58;;;;;;;12.44;57.96;102177.97;4995318;28;20026;-50
2023/05/16 02:26:44;;;;;;;9.88;1.55;;;;;;;12.46;57.55;102179.75;4995496;28;20038;-44
2023/05/16 02:29:09;;;;;;;7.05;1.60;;;;;;;12.45;57.23;102180.59;4995890;28;20030;-45
2023/05/16 02:31:35;;;;;;;11.88;1.90;;;;;;;12.40;57.44;102186.56;4996080;28;20042;-45
2023/05/16 02:34:01;;;;;;;9.75;1.70;;;;;;;12.38;57.57;102183.88;4998418;28;20030;-44
2023/05/16 02:36:27;;;;;;;7.95;1.85;;;;;;;12.23;58.89;102195.66;5005254;28;20056;-47
2023/05/16 02:38:52;;;;;;;11.15;1.92;;;;;;;12.32;58.45;102188.94;5003060;28;20030;-45
2023/05/16 02:41:18;;;;;;;7.72;1.88;;;;;;;12.51;58.25;102188.59;4996197;28;20522;-48
2023/05/16 02:43:43;;;;;;;8.95;1.80;;;;;;;12.49;58.46;102190.31;4996108;28;20055;-52
2023/05/16 02:46:24;;;;;;;6.10;1.50;;;;;;;12.63;57.80;102195.00;4996013;28;20466;-44
2023/05/16 02:48:50;;;;;;;10.65;1.90;;;;;;;12.37;57.90;102189.09;4995951;28;20045;-50
2023/05/16 02:51:15;;;;;;;10.18;1.48;;;;;;;12.37;57.73;102192.59;4995212;28;20045;-47
2023/05/16 02:53:40;;;;;;;8.48;1.67;;;;;;;12.58;57.19;102187.91;4995153;28;20386;-46
2023/05/16 02:56:06;;;;;;;11.40;2.60;;;;;;;12.41;57.77;102190.94;4995262;28;20038;-45
2023/05/16 02:58:32;;;;;;;11.60;2.35;;;;;;;12.51;57.56;102193.84;4995675;28;20128;-46
2023/05/16 03:00:57;;;;;;;7.32;1.80;;;;;;;12.54;57.34;102204.41;4995158;28;20034;-48
2023/05/16 03:03:22;;;;;;;8.10;1.90;;;;;;;12.53;57.14;102202.63;4995343;28;20122;-50
2023/05/16 03:05:48;;;;;;;9.27;1.80;;;;;;;12.45;57.45;102204.13;4994511;28;20046;-47
2023/05/16 03:08:14;;;;;;;10.38;2.05;;;;;;;12.40;57.58;102205.75;4992441;28;20448;-48
2023/05/16 03:10:39;;;;;;;13.15;2.15;;;;;;;12.36;57.42;102209.13;4991730;28;20396;-50
2023/05/16 03:13:04;;;;;;;7.15;1.88;;;;;;;12.29;58.01;102201.97;4992047;28;20030;-48
2023/05/16 03:15:30;;;;;;;8.25;1.90;;;;;;;12.05;59.13;102206.50;4991667;28;20088;-47
2023/05/16 03:17:55;;;;;;;8.77;1.80;;;;;;;12.26;58.64;102211.47;4992313;28;20034;-44
2023/05/16 03:20:21;;;;;;;7.93;2.00;;;;;;;12.30;58.03;102211.59;4992380;28;20375;-48
2023/05/16 03:22:46;;;;;;;10.25;1.75;;;;;;;12.12;58.75;102211.97;4992035;28;20030;-46
2023/05/16 03:25:12;;;;;;;13.20;1.90;;;;;;;12.22;58.57;102213.09;4991586;28;20431;-45
2023/05/16 03:27:37;;;;;;;10.27;2.78;;;;;;;12.35;57.99;102211.69;4991639;28;20378;-45
2023/05/16 03:30:03;;;;;;;9.60;1.80;;;;;;;12.40;57.77;102218.81;4991778;28;20030;-45
2023/05/16 03:32:28;;;;;;;10.13;2.03;;;;;;;12.36;58.23;102216.09;4991781;28;20152;-44
2023/05/16 03:34:53;;;;;;;14.68;2.20;;;;;;;12.35;58.07;102219.53;4991876;28;20041;-46
2023/05/16 03:37:19;;;;;;;11.85;2.55;;;;;;;12.34;58.06;102221.28;4991463;28;20084;-46
2023/05/16 03:39:44;;;;;;;10.45;2.00;;;;;;;12.40;57.68;102218.81;4991304;28;20037;-50
2023/05/16 03:42:09;;;;;;;6.20;1.92;;;;;;;12.53;56.75;102215.69;4991245;28;20037;-45
2023/05/16 03:44:35;;;;;;;8.95;2.00;;;;;;;12.48;56.92;102219.94;4991443;28;20118;-47
2023/05/16 03:47:00;;;;;;;9.77;1.83;;;;;;;12.39;56.93;102219.66;4991623;28;20125;-48
2023/05/16 03:49:28;;;;;;;8.05;1.98;;;;;;;12.33;57.37;102224.72;4991686;28;20057;-46
2023/05/16 03:51:54;;;;;;;6.28;1.80;;;;;;;12.29;57.49;102228.09;4991319;28;20438;-46
2023/05/16 03:54:20;;;;;;;9.63;1.85;;;;;;;12.25;57.84;102228.00;4990975;28;20038;-49
2023/05/16 03:56:46;;;;;;;7.55;1.60;;;;;;;12.40;57.11;102225.78;4990831;28;20058;-47
2023/05/16 03:59:11;;;;;;;9.57;1.60;;;;;;;12.37;57.24;102225.72;4990906;28;20069;-50
2023/05/16 04:01:37;;;;;;;11.48;2.33;;;;;;;12.35;56.78;102230.00;4990764;28;20026;-46
2023/05/16 04:04:02;;;;;;;9.93;1.92;;;;;;;12.33;57.00;102226.44;4989260;28;20066;-45
2023/05/16 04:06:28;;;;;;;9.45;1.50;;;;;;;12.15;57.38;102229.44;4990925;28;20039;-51
2023/05/16 04:08:53;;;;;;;11.52;1.63;;;;;;;12.35;57.60;102227.38;4991322;28;20689;-45
2023/05/16 04:11:18;;;;;;;7.55;1.70;;;;;;;12.57;56.81;102229.72;4990488;28;20421;-46
2023/05/16 04:13:44;;;;;;;7.68;1.50;;;;;;;12.87;55.99;102241.00;4990325;28;20045;-53
2023/05/16 04:16:09;;;;;;;10.55;1.90;;;;;;;12.75;56.21;102229.31;4990855;28;20066;-46
2023/05/16 04:18:34;;;;;;;9.43;1.65;;;;;;;12.71;56.07;102236.22;4990375;28;20030;-49
2023/05/16 04:21:00;;;;;;;4.88;1.50;;;;;;;12.93;55.74;102235.91;4989930;28;20038;-46
2023/05/16 04:23:25;;;;;;;8.90;1.58;;;;;;;12.93;56.05;102235.91;4991140;28;20034;-47
2023/05/16 04:25:51;;;;;;;7.00;1.35;;;;;;;13.10;55.31;102232.84;4990326;28;20042;-47
2023/05/16 04:28:16;;;;;;;8.73;1.40;;;;;;;13.09;55.27;102237.22;4990436;28;20600;-47
2023/05/16 04:30:42;;;;;;;6.93;1.50;;;;;;;13.10;55.79;102238.97;4990010;28;20047;-45
2023/05/16 04:33:07;;;;;;;9.98;1.63;;;;;;;12.94;56.32;102236.81;4990269;28;20030;-48
2023/05/16 04:35:32;;;;;;;10.65;1.48;;;;;;;13.28;55.75;102235.97;4990241;28;20159;-45
2023/05/16 04:37:58;;;;;;;6.50;1.65;;;;;;;13.13;55.93;102235.56;4990291;28;20040;-47
2023/05/16 04:40:24;;;;;;;4.50;1.35;;;;;;;13.43;55.23;102238.03;4990704;28;20035;-48
2023/05/16 04:42:50;;;;;;;6.72;1.40;;;;;;;13.04;55.61;102244.06;4990559;28;20030;-48
2023/05/16 04:45:15;;;;;;;8.20;1.45;;;;;;;13.40;55.16;102231.00;4990301;28;20521;-46
2023/05/16 04:47:41;;;;;;;7.25;1.55;;;;;;;13.44;54.91;102247.66;4990329;28;20061;-44
2023/05/16 04:50:10;;;;;;;9.55;1.38;;;;;;;13.43;54.94;102245.91;4990217;28;20117;-49
2023/05/16 04:52:36;;;;;;;7.72;1.20;;;;;;;13.48;55.25;102255.63;4989748;28;20037;-45
2023/05/16 04:55:02;;;;;;;7.22;1.58;;;;;;;13.69;54.76;102255.25;4989832;28;20034;-48
2023/05/16 04:57:27;;;;;;;8.90;1.60;;;;;;;13.48;55.34;102257.41;4989830;28;20037;-46
2023/05/16 04:59:53;;;;;;;7.45;1.40;;;;;;;13.53;54.89;102256.66;4990268;28;20030;-46
2023/05/16 05:02:18;;;;;;;6.95;1.20;;;;;;;13.63;54.49;102260.34;4989852;28;20419;-50
2023/05/16 05:04:43;;;;;;;7.18;1.45;;;;;;;13.55;55.04;102267.13;4989528;28;20385;-47
2023/05/16 05:07:09;;;;;;;6.30;1.30;;;;;;;13.45;55.35;102263.44;4989778;28;20034;-45
2023/05/16 05:09:34;;;;;;;7.65;1.25;;;;;;;13.58;55.41;102267.22;4989850;28;20045;-44
2023/05/16 05:11:59;;;;;;;11.02;1.63;;;;;;;14.00;54.42;102265.56;4989809;28;20058;-45
2023/05/16 05:14:25;;;;;;;7.75;1.88;;;;;;;14.80;51.72;102271.56;4989715;28;20042;-47
2023/05/16 05:16:50;;;;;;;7.82;1.48;;;;;;;15.83;48.33;102262.75;4989616;28;20373;-45
2023/05/16 05:19:15;;;;;;;7.90;1.48;;;;;;;15.92;47.27;102266.41;4989575;28;20105;-44
2023/05/16 05:21:41;;;;;;;5.57;1.08;;;;;;;16.76;45.10;102265.66;4989164;28;20041;-47
2023/05/16 05:24:06;;;;;;;4.93;1.30;;;;;;;16.66;45.27;102269.94;4989357;28;20289;-44
2023/05/16 05:26:31;;;;;;;6.03;1.42;;;;;;;16.20;45.91;102274.66;4989287;28;20505;-47
2023/05/16 05:28:57;;;;;;;5.03;1.20;;;;;;;17.23;44.12;102276.63;4989604;28;20031;-45
2023/05/16 05:31:22;;;;;;;7.22;1.42;;;;;;;17.69;43.40;102275.25;4989563;28;20023;-45
2023/05/16 05:33:47;;;;;;;8.63;1.30;;;;;;;18.19;42.97;102275.50;4989291;28;20034;-49
2023/05/16 05:36:13;;;;;;;9.52;1.20;;;;;;;17.74;43.73;102277.06;4989600;28;20026;-44
2023/05/16 05:38:38;;;;;;;8.38;1.42;;;;;;;17.90;43.09;102270.09;4989399;28;20038;-46
2023/05/16 05:41:04;;;;;;;11.90;1.60;;;;;;;17.66;44.03;102275.22;4989268;28;20073;-45
2023/05/16 05:43:29;;;;;;;8.43;1.88;;;;;;;17.62;43.18;102271.72;4989284;28;20035;-49
2023/05/16 05:45:55;;;;;;;10.13;1.45;;;;;;;16.46;46.67;102277.59;4989671;28;20089;-47
2023/05/16 05:48:20;;;;;;;6.22;1.40;;;;;;;16.32;47.46;102288.81;4989394;28;20036;-53
2023/05/16 05:50:46;;;;;;;9.18;1.52;;;;;;;15.59;49.13;102287.81;4989466;28;20103;-45
2023/05/16 05:53:11;;;;;;;8.45;1.60;;;;;;;15.39;49.77;102292.72;4989318;28;20057;-45
2023/05/16 05:55:36;;;;;;;6.20;1.30;;;;;;;15.11;51.34;102296.63;4989086;28;20066;-50
2023/05/16 05:58:02;;;;;;;8.30;1.73;;;;;;;15.21;51.33;102300.28;4989568;28;20034;-45
2023/05/16 06:00:28;;;;;;;11.05;1.48;;;;;;;15.77;50.84;102291.59;4989776;28;20034;-48
2023/05/16 06:02:53;;;;;;;8.70;1.52;;;;;;;16.68;48.43;102291.03;4991193;28;20065;-48
2023/05/16 06:05:19;;;;;;;6.90;1.50;;;;;;;17.18;47.10;102294.16;4990618;28;20449;-46
2023/05/16 06:07:44;;;;;;;6.78;1.40;;;;;;;18.16;44.46;102288.72;4989397;28;20137;-46
2023/05/16 06:10:09;;;;;;;5.32;1.48;;;;;;;18.11;43.27;102291.31;4990462;28;20036;-48
2023/05/16 06:12:35;;;;;;;6.68;1.42;;;;;;;18.10;42.92;102299.25;4989366;28;20122;-46
2023/05/16 06:15:00;;;;;;;7.88;1.40;;;;;;;18.10;41.47;102296.59;4988705;28;20037;-47
2023/05/16 06:17:25;;;;;;;6.13;1.30;;;;;;;17.55;44.03;102303.25;4989239;28;20037;-49
2023/05/16 06:19:51;;;;;;;6.30;1.40;;;;;;;17.49;43.53;102301.47;4989248;28;20046;-46
2023/05/16 06:22:16;;;;;;;10.45;1.25;;;;;;;18.58;41.68;102303.88;4988683;28;20065;-48
2023/05/16 06:24:41;;;;;;;6.45;1.20;;;;;;;19.08;39.45;102295.16;4989005;28;20415;-47
2023/05/16 06:27:07;;;;;;;5.43;1.15;;;;;;;19.34;38.49;102302.22;4988653;28;20058;-45
2023/05/16 06:29:32;;;;;;;6.68;1.30;;;;;;;18.06;41.58;102297.44;4988718;28;20125;-48
2023/05/16 06:31:58;;;;;;;7.03;1.10;;;;;;;16.80;44.36;102302.56;4989221;28;20088;-47
2023/05/16 06:34:26;;;;;;;4.60;1.10;;;;;;;17.09;44.79;102308.13;4989613;28;20074;-45
2023/05/16 06:36:55;;;;;;;5.85;1.30;;;;;;;16.51;44.34;102325.03;4989556;28;20031;-45
2023/05/16 06:39:20;;;;;;;8.88;1.33;;;;;;;17.01;44.05;102317.72;4989451;28;20073;-49
2023/05/16 06:41:46;;;;;;;5.78;1.20;;;;;;;17.70;42.68;102312.19;4989452;28;20090;-47
2023/05/16 06:44:11;;;;;;;5.90;1.23;;;;;;;16.47;45.13;102323.22;4992123;28;20022;-46
2023/05/16 06:46:37;;;;;;;9.52;1.35;;;;;;;15.35;48.79;102327.69;4992935;28;20036;-45
2023/05/16 06:49:03;;;;;;;7.78;1.42;;;;;;;16.18;47.90;102320.22;4993050;28;20408;-44
2023/05/16 06:51:28;;;;;;;7.40;1.40;;;;;;;16.36;46.81;102319.56;4992799;28;20229;-45
2023/05/16 06:53:54;;;;;;;7.07;1.17;;;;;;;17.50;44.30;102323.44;4993097;28;20117;-47
2023/05/16 06:56:20;;;;;;;7.78;1.33;;;;;;;17.97;43.32;102318.53;4992426;28;20042;-47
2023/05/16 06:58:45;;;;;;;6.22;1.05;;;;;;;18.49;42.46;102320.53;4992341;28;20149;-48
2023/05/16 07:01:11;;;;;;;4.25;0.95;;;;;;;20.24;38.11;102304.75;4992511;28;20117;-44
2023/05/16 07:03:36;;;;;;;5.38;1.00;;;;;;;18.83;39.49;102323.31;4992419;28;20034;-46
2023/05/16 07:06:01;;;;;;;6.10;1.20;;;;;;;19.47;39.18;102323.41;4992104;28;20032;-46
2023/05/16 07:08:26;;;;;;;4.72;1.20;;;;;;;19.41;39.01;102326.91;4992392;28;20054;-48
2023/05/16 07:10:52;;;;;;;7.55;1.30;;;;;;;18.36;41.24;102321.34;4992321;28;20038;-44
2023/05/16 07:13:17;;;;;;;5.18;1.10;;;;;;;17.86;43.00;102328.13;4992046;28;20052;-46
2023/05/16 07:15:42;;;;;;;4.72;1.10;;;;;;;18.23;42.00;102328.34;4992183;28;20511;-49
2023/05/16 07:18:08;;;;;;;6.97;1.17;;;;;;;18.11;40.68;102328.25;4992163;28;20553;-46
2023/05/16 07:20:33;;;;;;;7.57;1.10;;;;;;;18.72;39.92;102338.25;4991735;28;20049;-48
2023/05/16 07:22:58;;;;;;;4.60;1.05;;;;;;;19.34;39.11;102341.88;4991890;28;20101;-48
2023/05/16 07:25:24;;;;;;;7.30;1.17;;;;;;;19.25;39.44;102339.25;4992010;28;20069;-48
2023/05/16 07:27:49;;;;;;;3.45;1.00;;;;;;;19.69;38.11;102343.69;4991572;28;20504;-46
2023/05/16 07:30:15;;;;;;;5.25;1.10;;;;;;;19.86;37.41;102339.25;4991416;28;20563;-45
2023/05/16 07:32:40;;;;;;;5.25;0.98;;;;;;;20.04;37.03;102339.22;4991452;28;20031;-45
2023/05/16 07:35:06;;;;;;;5.03;1.20;;;;;;;18.85;39.41;102340.03;4991369;28;20361;-44
2023/05/16 07:37:31;;;;;;;3.85;1.10;;;;;;;18.39;40.13;102349.53;4991423;28;20092;-47
2023/05/16 07:39:57;;;;;;;7.22;1.15;;;;;;;17.72;41.96;102349.13;4991412;28;20085;-47
2023/05/16 07:42:22;;;;;;;5.85;1.30;;;;;;;17.95;41.89;102346.63;4991715;28;20366;-46
2023/05/16 07:44:47;;;;;;;4.10;1.00;;;;;;;16.30;44.61;102345.81;4991337;28;20046;-47
2023/05/16 07:47:13;;;;;;;6.57;1.27;;;;;;;16.74;43.67;102351.66;4991129;28;20057;-46
2023/05/16 07:49:38;;;;;;;6.90;1.55;;;;;;;17.20;44.08;102339.88;4991428;28;20037;-49
2023/05/16 07:52:04;;;;;;;5.72;1.20;;;;;;;16.74;44.39;102357.81;4991055;28;20381;-42
2023/05/16 07:54:30;;;;;;;5.35;1.50;;;;;;;17.49;42.89;102358.59;4990524;28;20409;-46
2023/05/16 07:56:55;;;;;;;5.80;1.20;;;;;;;17.43;43.54;102357.66;4991370;28;20378;-45
2023/05/16 07:59:21;;;;;;;5.15;1.10;;;;;;;17.60;43.10;102355.19;4991319;28;20031;-47
2023/05/16 08:01:46;;;;;;;4.70;0.90;;;;;;;18.87;40.50;102357.66;4990905;28;20464;-44
2023/05/16 08:04:12;;;;;;;6.10;1.17;;;;;;;20.36;37.45;102348.88;4991633;28;20097;-44
2023/05/16 08:06:37;;;;;;;8.10;1.05;;;;;;;19.24;38.33;102361.28;4991059;28;20030;-44
2023/05/16 08:09:02;;;;;;;5.82;1.10;;;;;;;18.78;38.79;102364.69;4990975;28;20137;-44
2023/05/16 08:11:28;;;;;;;6.50;1.10;;;;;;;19.32;39.07;102369.22;4990786;28;20026;-44
2023/05/16 08:13:53;;;;;;;4.22;1.10;;;;;;;18.98;39.65;102357.69;4990898;28;20053;-44
2023/05/16 08:16:18;;;;;;;4.80;1.02;;;;;;;20.04;36.85;102356.88;4990670;28;20104;-44
2023/05/16 08:18:44;;;;;;;6.55;1.13;;;;;;;19.61;37.88;102362.22;4990615;28;20408;-45
2023/05/16 08:21:09;;;;;;;5.47;1.17;;;;;;;18.63;39.76;102376.97;4991720;28;20045;-50
2023/05/16 08:23:35;;;;;;;6.47;1.17;;;;;;;18.05;42.06;102375.72;4993783;28;20061;-46
2023/05/16 08:26:01;;;;;;;6.90;1.10;;;;;;;17.60;42.36;102360.47;4990878;28;20033;-45
2023/05/16 08:28:27;;;;;;;7.63;1.10;;;;;;;17.72;42.52;102362.31;4990558;28;20030;-47
2023/05/16 08:30:53;;;;;;;6.13;1.42;;;;;;;17.60;43.07;102370.09;4990828;28;20165;-47
2023/05/16 08:33:18;;;;;;;5.20;1.02;;;;;;;17.43;42.90;102370.84;4990628;28;20113;-50
2023/05/16 08:35:44;;;;;;;6.07;1.55;;;;;;;16.30;44.89;102369.50;4990155;28;20046;-45
2023/05/16 08:38:09;;;;;;;5.68;1.13;;;;;;;16.58;45.79;102367.28;4990497;28;20565;-48
2023/05/16 08:40:35;;;;;;;5.60;1.10;;;;;;;17.06;45.58;102355.53;4990219;28;20050;-47
2023/05/16 08:43:01;;;;;;;4.43;1.30;;;;;;;16.29;45.59;102365.97;4990423;28;20034;-48
2023/05/16 08:45:27;;;;;;;5.13;1.17;;;;;;;16.29;45.87;102372.97;4990647;28;20485;-47
2023/05/16 08:47:54;;;;;;;7.35;1.30;;;;;;;16.56;45.34;102363.72;4990365;28;20037;-47
2023/05/16 08:50:20;;;;;;;7.65;1.35;;;;;;;16.78;45.65;102358.72;4989877;28;20489;-45
2023/05/16 08:52:50;;;;;;;6.90;1.23;;;;;;;16.43;45.82;102360.91;4989634;28;20042;-46
2023/05/16 08:55:15;;;;;;;4.93;1.00;;;;;;;15.71;45.43;102378.28;4989773;28;20042;-46
2023/05/16 08:57:41;;;;;;;8.38;1.10;;;;;;;15.36;46.25;102385.53;4989842;28;20085;-45
2023/05/16 09:00:10;;;;;;;8.55;1.08;;;;;;;15.96;46.00;102373.41;4990236;28;20552;-44
2023/05/16 09:02:40;;;;;;;6.20;1.08;;;;;;;16.35;43.94;102384.47;4989935;28;20496;-48
2023/05/16 09:05:09;;;;;;;5.70;1.10;;;;;;;17.36;43.81;102381.31;4989743;28;20030;-50
2023/05/16 09:07:35;;;;;;;8.63;1.20;;;;;;;17.63;42.42;102380.69;4989624;28;20474;-45
2023/05/16 09:10:00;;;;;;;6.97;1.35;;;;;;;17.45;42.89;102384.03;4989860;28;20117;-47
2023/05/16 09:12:25;;;;;;;8.63;1.33;;;;;;;17.55;42.15;102383.25;4990025;28;20038;-45
2023/05/16 09:14:51;;;;;;;7.47;1.10;;;;;;;17.44;43.18;102385.78;4989969;28;20114;-46
2023/05/16 09:17:16;;;;;;;7.63;1.15;;;;;;;17.55;43.18;102392.91;4989553;28;20413;-50
2023/05/16 09:19:43;;;;;;;6.20;1.10;;;;;;;16.84;43.33;102383.38;4990025;28;20049;-47
2023/05/16 09:22:11;;;;;;;6.60;1.20;;;;;;;17.49;42.53;102382.31;4989636;28;20034;-49
2023/05/16 09:24:41;;;;;;;6.97;0.98;;;;;;;17.64;42.77;102388.63;4989216;28;20030;-46
2023/05/16 09:27:08;;;;;;;5.18;1.02;;;;;;;18.16;42.00;102384.63;4989479;28;20089;-44
2023/05/16 09:29:33;;;;;;;3.95;0.95;;;;;;;18.30;41.28;102386.47;4989772;28;20492;-45
2023/05/16 09:32:13;;;;;;;11.32;1.30;;;;;;;17.37;41.90;102385.72;4989586;28;20061;-45
2023/05/16 09:34:43;;;;;;;7.72;1.15;;;;;;;17.40;43.94;102389.25;4990120;28;20038;-46
2023/05/16 09:37:10;;;;;;;6.05;1.20;;;;;;;17.24;44.50;102392.63;4991971;28;20031;-45
2023/05/16 09:39:35;;;;;;;8.05;1.20;;;;;;;17.48;43.36;102396.38;4992631;28;20033;-48
2023/05/16 09:42:01;;;;;;;5.93;1.02;;;;;;;17.39;43.13;102397.16;4989429;28;20034;-47
2023/05/16 09:44:26;;;;;;;5.55;1.00;;;;;;;17.61;42.06;102391.25;4989400;28;20030;-48
2023/05/16 09:46:54;;;;;;;7.28;1.23;;;;;;;17.61;42.08;102391.25;4989296;28;20046;-48
2023/05/16 09:49:19;;;;;;;6.05;1.05;;;;;;;17.28;42.67;102385.63;4989188;28;20030;-48
2023/05/16 09:51:45;;;;;;;5.43;1.17;;;;;;;17.72;42.67;102402.78;4989066;28;20135;-48
2023/05/16 09:54:10;;;;;;;6.72;1.10;;;;;;;17.39;43.04;102408.56;4988945;28;20045;-49
2023/05/16 09:56:49;;;;;;;7.00;1.20;;;;;;;17.94;42.01;102397.63;4988567;28;20037;-47
2023/05/16 09:59:15;;;;;;;4.50;1.00;;;;;;;18.00;40.80;102390.66;4988882;28;20053;-45
2023/05/16 10:01:41;;;;;;;5.45;1.08;;;;;;;17.57;41.77;102396.44;4988800;28;20545;-48
2023/05/16 10:04:09;;;;;;;4.07;1.00;;;;;;;17.86;40.53;102399.38;4988960;28;20039;-52
2023/05/16 10:06:35;;;;;;;8.55;1.38;;;;;;;17.66;42.07;102409.75;4989914;28;20425;-46
2023/05/16 10:09:01;;;;;;;5.13;1.05;;;;;;;16.66;42.88;102400.72;4990181;28;20244;-46
2023/05/16 10:11:27;;;;;;;5.82;1.00;;;;;;;16.83;42.99;102407.09;4989892;28;20121;-46
2023/05/16 10:13:53;;;;;;;5.68;1.00;;;;;;;17.18;43.84;102404.84;4989711;28;20121;-50
2023/05/16 10:16:22;;;;;;;5.47;1.10;;;;;;;16.89;42.40;102404.53;4989099;28;20655;-46
2023/05/16 10:18:48;;;;;;;5.05;1.00;;;;;;;17.54;41.83;102401.69;4992874;28;20046;-46
2023/05/16 10:21:16;;;;;;;6.20;1.23;;;;;;;17.82;40.84;102396.69;4992692;28;20461;-48
2023/05/16 10:23:46;;;;;;;9.02;1.00;;;;;;;17.89;42.12;102397.63;4992623;28;20117;-50
2023/05/16 10:26:14;;;;;;;5.82;1.05;;;;;;;17.35;43.33;102401.53;4992553;28;20477;-49
2023/05/16 10:28:40;;;;;;;3.83;1.00;;;;;;;17.29;42.50;102406.72;4992594;28;20125;-48
2023/05/16 10:31:06;;;;;;;4.63;1.20;;;;;;;17.34;43.37;102393.59;4992363;28;20113;-50
2023/05/16 10:33:32;;;;;;;6.28;1.23;;;;;;;17.55;43.13;102400.81;4992097;28;20057;-48
2023/05/16 10:35:57;;;;;;;5.05;1.00;;;;;;;16.93;43.71;102395.78;4991939;28;20523;-48
2023/05/16 10:38:24;;;;;;;3.22;0.90;;;;;;;18.09;40.93;102390.72;4992450;28;20468;-46
2023/05/16 10:40:50;;;;;;;4.85;0.90;;;;;;;17.26;42.97;102393.50;4990216;28;20559;-43
2023/05/16 10:43:26;;;;;;;4.07;1.08;;;;;;;17.60;43.74;102383.28;4991958;28;20062;-46
2023/05/16 10:46:10;;;;;;;5.28;1.10;;;;;;;16.93;45.27;102388.78;4992271;28;20038;-47
2023/05/16 10:48:37;;;;;;;6.83;1.17;;;;;;;17.38;43.09;102388.34;4992459;28;20117;-47
2023/05/16 10:51:23;;;;;;;7.93;1.30;;;;;;;17.87;41.61;102385.31;4991860;28;20783;-48
2023/05/16 10:53:54;;;;;;;7.22;1.23;;;;;;;17.52;43.23;102385.84;4991785;28;20046;-49
2023/05/16 10:56:25;;;;;;;4.15;1.02;;;;;;;17.48;43.87;102383.19;4992156;28;20041;-46
2023/05/16 10:58:52;;;;;;;6.45;1.10;;;;;;;17.43;42.19;102385.78;4992388;28;20061;-47
2023/05/16 11:01:21;;;;;;;6.70;1.08;;;;;;;17.75;42.75;102381.66;4991809;28;20036;-45
2023/05/16 11:03:58;;;;;;;4.65;1.02;;;;;;;17.34;42.60;102390.94;4991953;28;20034;-46
2023/05/16 11:06:28;;;;;;;4.93;1.10;;;;;;;18.09;41.87;102377.53;4992236;28;20138;-46
2023/05/16 11:09:04;;;;;;;4.20;1.15;;;;;;;17.37;42.65;102377.81;4992313;28;20461;-48
2023/05/16 11:11:51;;;;;;;6.75;1.35;;;;;;;17.39;43.52;102386.59;4991374;28;20425;-48
2023/05/16 11:14:21;;;;;;;4.93;1.00;;;;;;;17.96;42.12;102378.31;4992164;28;20117;-45
2023/05/16 11:17:09;;;;;;;6.03;1.20;;;;;;;17.26;42.83;102377.69;4992384;28;20501;-45
2023/05/16 11:19:34;;;;;;;4.72;1.27;;;;;;;18.09;42.06;102380.19;4991777;28;20562;-45
2023/05/16 11:25:54;;;;;;;5.78;1.05;;;;;;;18.24;41.72;102384.66;5058406;27;20359;-45